sensor_id;sensor_type;location;lat;lon;timestamp;pressure;altitude;pressure_sealevel;temperature;humidity
63111;BME280;49201;53.426;10.300;2023-03-15T00:00:05;100763.59;;;1.54;100.00
63111;BME280;49201;53.426;10.300;2023-03-15T00:02:32;100762.56;;;1.51;100.00
63111;BME280;49201;53.426;10.300;2023-03-15T00:04:57;100769.41;;;1.53;100.00
63111;BME280;49201;53.426;10.300;2023-03-15T00:07:22;100775.41;;;1.55;100.00
63111;BME280;49201;53.426;10.300;2023-03-15T00:09:51;100778.00;;;1.57;100.00
63111;BME280;49201;53.426;10.300;2023-03-15T00:12:17;100772.09;;;1.56;100.00
63111;BME280;49201;53.426;10.300;2023-03-15T00:14:42;100778.94;;;1.59;100.00
63111;BME280;49201;53.426;10.300;2023-03-15T00:17:07;100784.16;;;1.62;100.00
63111;BME280;49201;53.426;10.300;2023-03-15T00:19:33;100796.00;;;1.63;100.00
63111;BME280;49201;53.426;10.300;2023-03-15T00:21:58;100794.16;;;1.60;100.00
63111;BME280;49201;53.426;10.300;2023-03-15T00:24:24;100798.09;;;1.55;100.00
63111;BME280;49201;53.426;10.300;2023-03-15T00:26:50;100788.63;;;1.51;100.00
63111;BME280;49201;53.426;10.300;2023-03-15T00:29:15;100799.59;;;1.52;100.00
63111;BME280;49201;53.426;10.300;2023-03-15T00:31:41;100800.81;;;1.58;100.00
63111;BME280;49201;53.426;10.300;2023-03-15T00:34:06;100802.06;;;1.66;100.00
63111;BME280;49201;53.426;10.300;2023-03-15T00:36:31;100812.25;;;1.68;100.00
63111;BME280;49201;53.426;10.300;2023-03-15T00:38:57;100809.81;;;1.69;100.00
63111;BME280;49201;53.426;10.300;2023-03-15T00:41:23;100827.16;;;1.63;100.00
63111;BME280;49201;53.426;10.300;2023-03-15T00:43:49;100829.34;;;1.57;100.00
63111;BME280;49201;53.426;10.300;2023-03-15T00:46:16;100826.81;;;1.57;100.00
63111;BME280;49201;53.426;10.300;2023-03-15T00:48:42;100824.97;;;1.55;100.00
63111;BME280;49201;53.426;10.300;2023-03-15T00:51:14;100829.88;;;1.52;100.00
63111;BME280;49201;53.426;10.300;2023-03-15T00:53:42;100841.00;;;1.55;100.00
63111;BME280;49201;53.426;10.300;2023-03-15T00:56:26;100838.28;;;1.52;100.00
63111;BME280;49201;53.426;10.300;2023-03-15T00:58:57;100844.91;;;1.50;100.00
63111;BME280;49201;53.426;10.300;2023-03-15T01:01:27;100844.03;;;1.50;100.00
63111;BME280;49201;53.426;10.300;2023-03-15T01:03:53;100846.50;;;1.48;100.00
63111;BME280;49201;53.426;10.300;2023-03-15T01:06:23;100844.75;;;1.47;100.00
63111;BME280;49201;53.426;10.300;2023-03-15T01:08:50;100836.31;;;1.47;100.00
63111;BME280;49201;53.426;10.300;2023-03-15T01:11:24;100840.25;;;1.42;100.00
63111;BME280;49201;53.426;10.300;2023-03-15T01:13:51;100845.38;;;1.43;100.00
63111;BME280;49201;53.426;10.300;2023-03-15T01:16:17;100854.59;;;1.43;100.00
63111;BME280;49201;53.426;10.300;2023-03-15T01:18:43;100864.69;;;1.43;100.00
63111;BME280;49201;53.426;10.300;2023-03-15T01:21:10;100868.94;;;1.44;100.00
63111;BME280;49201;53.426;10.300;2023-03-15T01:23:36;100866.50;;;1.45;100.00
63111;BME280;49201;53.426;10.300;2023-03-15T01:26:04;100869.63;;;1.41;100.00
63111;BME280;49201;53.426;10.300;2023-03-15T01:28:30;100861.19;;;1.41;100.00
63111;BME280;49201;53.426;10.300;2023-03-15T01:30:55;100866.16;;;1.39;100.00
63111;BME280;49201;53.426;10.300;2023-03-15T01:33:21;100868.94;;;1.44;100.00
63111;BME280;49201;53.426;10.300;2023-03-15T01:35:47;100870.59;;;1.43;100.00
63111;BME280;49201;53.426;10.300;2023-03-15T01:38:14;100869.81;;;1.44;100.00
63111;BME280;49201;53.426;10.300;2023-03-15T01:40:44;100876.69;;;1.47;100.00
63111;BME280;49201;53.426;10.300;2023-03-15T01:43:18;100878.31;;;1.46;100.00
63111;BME280;49201;53.426;10.300;2023-03-15T01:45:53;100883.22;;;1.43;100.00
63111;BME280;49201;53.426;10.300;2023-03-15T01:48:28;100882.44;;;1.44;100.00
63111;BME280;49201;53.426;10.300;2023-03-15T01:50:57;100887.47;;;1.44;100.00
63111;BME280;49201;53.426;10.300;2023-03-15T01:53:24;100884.06;;;1.44;100.00
63111;BME280;49201;53.426;10.300;2023-03-15T01:55:53;100890.09;;;1.46;100.00
63111;BME280;49201;53.426;10.300;2023-03-15T01:58:25;100891.97;;;1.50;100.00
63111;BME280;49201;53.426;10.300;2023-03-15T02:00:52;100895.47;;;1.52;100.00
63111;BME280;49201;53.426;10.300;2023-03-15T02:03:30;100894.06;;;1.57;100.00
63111;BME280;49201;53.426;10.300;2023-03-15T02:06:01;100891.63;;;1.58;100.00
63111;BME280;49201;53.426;10.300;2023-03-15T02:08:50;100902.56;;;1.59;100.00
63111;BME280;49201;53.426;10.300;2023-03-15T02:11:19;100904.56;;;1.64;100.00
63111;BME280;49201;53.426;10.300;2023-03-15T02:13:47;100902.22;;;1.67;100.00
63111;BME280;49201;53.426;10.300;2023-03-15T02:16:14;100893.06;;;1.69;100.00
63111;BME280;49201;53.426;10.300;2023-03-15T02:18:50;100909.31;;;1.74;100.00
63111;BME280;49201;53.426;10.300;2023-03-15T02:21:36;100895.06;;;1.75;100.00
63111;BME280;49201;53.426;10.300;2023-03-15T02:24:36;100903.75;;;1.80;100.00
63111;BME280;49201;53.426;10.300;2023-03-15T02:27:07;100907.78;;;1.76;100.00
63111;BME280;49201;53.426;10.300;2023-03-15T02:29:33;100908.72;;;1.78;100.00
63111;BME280;49201;53.426;10.300;2023-03-15T02:31:59;100916.38;;;1.80;100.00
63111;BME280;49201;53.426;10.300;2023-03-15T02:34:29;100912.81;;;1.76;100.00
63111;BME280;49201;53.426;10.300;2023-03-15T02:36:56;100924.66;;;1.77;100.00
63111;BME280;49201;53.426;10.300;2023-03-15T02:39:21;100926.56;;;1.81;100.00
63111;BME280;49201;53.426;10.300;2023-03-15T02:41:52;100929.94;;;1.82;100.00
63111;BME280;49201;53.426;10.300;2023-03-15T02:44:23;100928.19;;;1.81;100.00
63111;BME280;49201;53.426;10.300;2023-03-15T02:46:52;100942.81;;;1.86;100.00
63111;BME280;49201;53.426;10.300;2023-03-15T02:49:22;100937.78;;;1.86;100.00
63111;BME280;49201;53.426;10.300;2023-03-15T02:51:50;100932.72;;;1.86;100.00
63111;BME280;49201;53.426;10.300;2023-03-15T02:54:16;100945.34;;;1.86;100.00
63111;BME280;49201;53.426;10.300;2023-03-15T02:56:41;100956.38;;;1.88;100.00
63111;BME280;49201;53.426;10.300;2023-03-15T02:59:07;100957.44;;;1.92;100.00
63111;BME280;49201;53.426;10.300;2023-03-15T03:01:32;100958.47;;;1.95;100.00
63111;BME280;49201;53.426;10.300;2023-03-15T03:04:02;100958.63;;;1.98;100.00
63111;BME280;49201;53.426;10.300;2023-03-15T03:06:28;100963.84;;;2.01;100.00
63111;BME280;49201;53.426;10.300;2023-03-15T03:08:53;100972.38;;;2.03;100.00
63111;BME280;49201;53.426;10.300;2023-03-15T03:11:19;100983.59;;;2.08;100.00
63111;BME280;49201;53.426;10.300;2023-03-15T03:13:45;100983.59;;;2.08;100.00
63111;BME280;49201;53.426;10.300;2023-03-15T03:16:11;100987.78;;;2.08;100.00
63111;BME280;49201;53.426;10.300;2023-03-15T03:18:37;100993.72;;;2.08;100.00
63111;BME280;49201;53.426;10.300;2023-03-15T03:21:06;101001.28;;;2.08;100.00
63111;BME280;49201;53.426;10.300;2023-03-15T03:23:32;100995.44;;;2.09;100.00
63111;BME280;49201;53.426;10.300;2023-03-15T03:25:58;100999.00;;;2.13;100.00
63111;BME280;49201;53.426;10.300;2023-03-15T03:28:26;101000.63;;;2.12;100.00
63111;BME280;49201;53.426;10.300;2023-03-15T03:30:53;101008.22;;;2.12;100.00
63111;BME280;49201;53.426;10.300;2023-03-15T03:33:19;101009.78;;;2.10;100.00
63111;BME280;49201;53.426;10.300;2023-03-15T03:35:46;101021.53;;;2.10;100.00
63111;BME280;49201;53.426;10.300;2023-03-15T03:38:12;101027.28;;;2.07;100.00
63111;BME280;49201;53.426;10.300;2023-03-15T03:40:41;101033.22;;;2.08;100.00
63111;BME280;49201;53.426;10.300;2023-03-15T03:43:07;101029.19;;;2.11;100.00
63111;BME280;49201;53.426;10.300;2023-03-15T03:45:33;101036.97;;;2.14;100.00
63111;BME280;49201;53.426;10.300;2023-03-15T03:48:00;101031.91;;;2.14;100.00
63111;BME280;49201;53.426;10.300;2023-03-15T03:50:26;101031.81;;;2.13;100.00
63111;BME280;49201;53.426;10.300;2023-03-15T03:52:53;101034.16;;;2.10;100.00
63111;BME280;49201;53.426;10.300;2023-03-15T03:55:23;101049.25;;;2.08;100.00
63111;BME280;49201;53.426;10.300;2023-03-15T03:57:50;101056.97;;;2.11;100.00
63111;BME280;49201;53.426;10.300;2023-03-15T04:00:33;101063.16;;;2.16;100.00
63111;BME280;49201;53.426;10.300;2023-03-15T04:02:59;101068.38;;;2.19;100.00
63111;BME280;49201;53.426;10.300;2023-03-15T04:05:27;101077.78;;;2.22;100.00
63111;BME280;49201;53.426;10.300;2023-03-15T04:07:53;101078.66;;;2.22;100.00
63111;BME280;49201;53.426;10.300;2023-03-15T04:10:19;101080.41;;;2.23;100.00
63111;BME280;49201;53.426;10.300;2023-03-15T04:12:57;101092.25;;;2.24;100.00
63111;BME280;49201;53.426;10.300;2023-03-15T04:15:23;101090.94;;;2.16;100.00
63111;BME280;49201;53.426;10.300;2023-03-15T04:17:50;101092.00;;;2.05;100.00
63111;BME280;49201;53.426;10.300;2023-03-15T04:20:33;101101.81;;;2.01;100.00
63111;BME280;49201;53.426;10.300;2023-03-15T04:22:59;101109.22;;;1.98;100.00
63111;BME280;49201;53.426;10.300;2023-03-15T04:25:36;101111.66;;;1.96;100.00
63111;BME280;49201;53.426;10.300;2023-03-15T04:28:27;101127.50;;;1.94;100.00
63111;BME280;49201;53.426;10.300;2023-03-15T04:31:21;101126.56;;;1.92;100.00
63111;BME280;49201;53.426;10.300;2023-03-15T04:34:09;101129.69;;;1.88;100.00
63111;BME280;49201;53.426;10.300;2023-03-15T04:36:52;101132.91;;;1.85;100.00
63111;BME280;49201;53.426;10.300;2023-03-15T04:39:38;101135.25;;;1.82;100.00
63111;BME280;49201;53.426;10.300;2023-03-15T04:42:23;101117.97;;;1.75;100.00
63111;BME280;49201;53.426;10.300;2023-03-15T04:45:10;101121.28;;;1.74;100.00
63111;BME280;49201;53.426;10.300;2023-03-15T04:47:41;101130.53;;;1.74;100.00
63111;BME280;49201;53.426;10.300;2023-03-15T04:50:25;101148.38;;;1.77;100.00
63111;BME280;49201;53.426;10.300;2023-03-15T04:52:58;101145.16;;;1.79;100.00
63111;BME280;49201;53.426;10.300;2023-03-15T04:55:42;101145.06;;;1.78;100.00
63111;BME280;49201;53.426;10.300;2023-03-15T04:58:20;101140.09;;;1.79;100.00
63111;BME280;49201;53.426;10.300;2023-03-15T05:01:01;101142.53;;;1.78;100.00
63111;BME280;49201;53.426;10.300;2023-03-15T05:03:47;101155.16;;;1.78;100.00
63111;BME280;49201;53.426;10.300;2023-03-15T05:06:41;101152.72;;;1.79;100.00
63111;BME280;49201;53.426;10.300;2023-03-15T05:09:29;101150.78;;;1.75;100.00
63111;BME280;49201;53.426;10.300;2023-03-15T05:12:22;101163.75;;;1.67;100.00
63111;BME280;49201;53.426;10.300;2023-03-15T05:15:13;101161.66;;;1.60;100.00
63111;BME280;49201;53.426;10.300;2023-03-15T05:18:01;101168.06;;;1.55;100.00
63111;BME280;49201;53.426;10.300;2023-03-15T05:20:40;101173.03;;;1.53;100.00
63111;BME280;49201;53.426;10.300;2023-03-15T05:23:28;101173.03;;;1.53;100.00
63111;BME280;49201;53.426;10.300;2023-03-15T05:26:00;101179.81;;;1.54;100.00
63111;BME280;49201;53.426;10.300;2023-03-15T05:28:28;101188.34;;;1.56;100.00
63111;BME280;49201;53.426;10.300;2023-03-15T05:31:29;101191.53;;;1.54;100.00
63111;BME280;49201;53.426;10.300;2023-03-15T05:34:06;101189.91;;;1.54;100.00
63111;BME280;49201;53.426;10.300;2023-03-15T05:36:44;101181.56;;;1.55;100.00
63111;BME280;49201;53.426;10.300;2023-03-15T05:39:19;101194.16;;;1.55;100.00
63111;BME280;49201;53.426;10.300;2023-03-15T05:42:07;101200.00;;;1.54;100.00
63111;BME280;49201;53.426;10.300;2023-03-15T05:44:48;101208.34;;;1.53;100.00
63111;BME280;49201;53.426;10.300;2023-03-15T05:47:36;101225.31;;;1.56;100.00
63111;BME280;49201;53.426;10.300;2023-03-15T05:50:09;101227.94;;;1.57;100.00
63111;BME280;49201;53.426;10.300;2023-03-15T05:52:53;101228.78;;;1.58;100.00
63111;BME280;49201;53.426;10.300;2023-03-15T05:55:41;101235.78;;;1.62;100.00
63111;BME280;49201;53.426;10.300;2023-03-15T05:58:13;101243.44;;;1.63;100.00
63111;BME280;49201;53.426;10.300;2023-03-15T06:00:57;101244.41;;;1.65;100.00
63111;BME280;49201;53.426;10.300;2023-03-15T06:03:42;101247.59;;;1.63;100.00
63111;BME280;49201;53.426;10.300;2023-03-15T06:06:16;101257.59;;;1.61;100.00
63111;BME280;49201;53.426;10.300;2023-03-15T06:08:42;101257.69;;;1.63;100.00
63111;BME280;49201;53.426;10.300;2023-03-15T06:11:08;101258.69;;;1.65;100.00
63111;BME280;49201;53.426;10.300;2023-03-15T06:13:33;101254.38;;;1.64;100.00
63111;BME280;49201;53.426;10.300;2023-03-15T06:16:04;101257.13;;;1.67;100.00
63111;BME280;49201;53.426;10.300;2023-03-15T06:18:30;101260.00;;;1.73;100.00
63111;BME280;49201;53.426;10.300;2023-03-15T06:20:57;101267.75;;;1.76;100.00
63111;BME280;49201;53.426;10.300;2023-03-15T06:23:22;101266.63;;;1.71;100.00
63111;BME280;49201;53.426;10.300;2023-03-15T06:25:48;101268.66;;;1.76;100.00
63111;BME280;49201;53.426;10.300;2023-03-15T06:28:14;101272.72;;;1.74;100.00
63111;BME280;49201;53.426;10.300;2023-03-15T06:30:46;101279.88;;;1.81;100.00
63111;BME280;49201;53.426;10.300;2023-03-15T06:33:13;101289.31;;;1.98;100.00
63111;BME280;49201;53.426;10.300;2023-03-15T06:35:38;101302.94;;;2.00;100.00
63111;BME280;49201;53.426;10.300;2023-03-15T06:38:04;101302.25;;;2.03;100.00
63111;BME280;49201;53.426;10.300;2023-03-15T06:40:30;101306.59;;;2.05;100.00
63111;BME280;49201;53.426;10.300;2023-03-15T06:42:56;101310.97;;;2.08;100.00
63111;BME280;49201;53.426;10.300;2023-03-15T06:45:21;101314.03;;;2.17;100.00
63111;BME280;49201;53.426;10.300;2023-03-15T06:47:48;101317.25;;;2.14;100.00
63111;BME280;49201;53.426;10.300;2023-03-15T06:50:15;101320.47;;;2.12;100.00
63111;BME280;49201;53.426;10.300;2023-03-15T06:52:40;101323.56;;;2.21;100.00
63111;BME280;49201;53.426;10.300;2023-03-15T06:55:06;101327.81;;;2.22;100.00
63111;BME280;49201;53.426;10.300;2023-03-15T06:57:32;101333.91;;;2.25;100.00
63111;BME280;49201;53.426;10.300;2023-03-15T06:59:57;101335.25;;;2.33;100.00
63111;BME280;49201;53.426;10.300;2023-03-15T07:02:23;101339.25;;;2.30;100.00
63111;BME280;49201;53.426;10.300;2023-03-15T07:04:48;101344.75;;;2.37;100.00
63111;BME280;49201;53.426;10.300;2023-03-15T07:07:14;101348.38;;;2.28;100.00
63111;BME280;49201;53.426;10.300;2023-03-15T07:09:40;101347.97;;;2.35;100.00
63111;BME280;49201;53.426;10.300;2023-03-15T07:12:06;101357.16;;;2.47;100.00
63111;BME280;49201;53.426;10.300;2023-03-15T07:14:33;101358.59;;;2.57;100.00
63111;BME280;49201;53.426;10.300;2023-03-15T07:16:59;101365.13;;;2.68;100.00
63111;BME280;49201;53.426;10.300;2023-03-15T07:19:24;101358.16;;;2.93;100.00
63111;BME280;49201;53.426;10.300;2023-03-15T07:21:50;101372.75;;;3.11;100.00
63111;BME280;49201;53.426;10.300;2023-03-15T07:24:16;101369.25;;;2.95;100.00
63111;BME280;49201;53.426;10.300;2023-03-15T07:26:41;101359.75;;;2.91;100.00
63111;BME280;49201;53.426;10.300;2023-03-15T07:29:07;101364.53;;;3.01;100.00
63111;BME280;49201;53.426;10.300;2023-03-15T07:31:32;101369.19;;;3.08;100.00
63111;BME280;49201;53.426;10.300;2023-03-15T07:33:58;101371.34;;;3.31;100.00
63111;BME280;49201;53.426;10.300;2023-03-15T07:36:23;101371.69;;;3.51;100.00
63111;BME280;49201;53.426;10.300;2023-03-15T07:38:49;101375.44;;;3.58;100.00
63111;BME280;49201;53.426;10.300;2023-03-15T07:41:15;101377.19;;;3.89;100.00
63111;BME280;49201;53.426;10.300;2023-03-15T07:43:51;101379.94;;;4.40;100.00
63111;BME280;49201;53.426;10.300;2023-03-15T07:46:17;101382.06;;;4.81;100.00
63111;BME280;49201;53.426;10.300;2023-03-15T07:48:42;101388.41;;;4.73;100.00
63111;BME280;49201;53.426;10.300;2023-03-15T07:51:07;101380.88;;;4.42;100.00
63111;BME280;49201;53.426;10.300;2023-03-15T07:53:33;101400.13;;;4.39;100.00
63111;BME280;49201;53.426;10.300;2023-03-15T07:55:58;101428.88;;;4.23;100.00
63111;BME280;49201;53.426;10.300;2023-03-15T07:58:25;101452.19;;;3.87;100.00
63111;BME280;49201;53.426;10.300;2023-03-15T08:00:53;101446.28;;;3.72;100.00
63111;BME280;49201;53.426;10.300;2023-03-15T08:03:19;101459.03;;;3.59;100.00
63111;BME280;49201;53.426;10.300;2023-03-15T08:05:45;101463.13;;;3.43;100.00
63111;BME280;49201;53.426;10.300;2023-03-15T08:08:10;101467.66;;;3.34;100.00
63111;BME280;49201;53.426;10.300;2023-03-15T08:10:35;101471.94;;;3.20;100.00
63111;BME280;49201;53.426;10.300;2023-03-15T08:13:01;101459.16;;;3.04;100.00
63111;BME280;49201;53.426;10.300;2023-03-15T08:15:26;101455.50;;;2.99;100.00
63111;BME280;49201;53.426;10.300;2023-03-15T08:17:52;101449.94;;;3.05;100.00
63111;BME280;49201;53.426;10.300;2023-03-15T08:20:17;101449.34;;;3.09;100.00
63111;BME280;49201;53.426;10.300;2023-03-15T08:22:44;101450.03;;;3.21;100.00
63111;BME280;49201;53.426;10.300;2023-03-15T08:25:11;101456.94;;;3.23;100.00
63111;BME280;49201;53.426;10.300;2023-03-15T08:27:38;101457.44;;;3.32;100.00
63111;BME280;49201;53.426;10.300;2023-03-15T08:30:03;101458.69;;;3.39;100.00
63111;BME280;49201;53.426;10.300;2023-03-15T08:32:30;101453.41;;;4.24;100.00
63111;BME280;49201;53.426;10.300;2023-03-15T08:34:56;101447.75;;;4.44;100.00
63111;BME280;49201;53.426;10.300;2023-03-15T08:37:22;101457.94;;;4.30;100.00
63111;BME280;49201;53.426;10.300;2023-03-15T08:39:48;101462.19;;;4.61;100.00
63111;BME280;49201;53.426;10.300;2023-03-15T08:42:13;101466.63;;;4.49;100.00
63111;BME280;49201;53.426;10.300;2023-03-15T08:44:39;101472.88;;;4.56;100.00
63111;BME280;49201;53.426;10.300;2023-03-15T08:47:05;101483.59;;;4.66;100.00
63111;BME280;49201;53.426;10.300;2023-03-15T08:49:31;101487.16;;;4.70;100.00
63111;BME280;49201;53.426;10.300;2023-03-15T08:51:56;101486.72;;;4.93;100.00
63111;BME280;49201;53.426;10.300;2023-03-15T08:54:22;101486.69;;;5.09;100.00
63111;BME280;49201;53.426;10.300;2023-03-15T08:56:47;101493.91;;;5.67;100.00
63111;BME280;49201;53.426;10.300;2023-03-15T08:59:13;101500.91;;;5.88;100.00
63111;BME280;49201;53.426;10.300;2023-03-15T09:01:39;101502.88;;;6.29;100.00
63111;BME280;49201;53.426;10.300;2023-03-15T09:04:05;101495.38;;;6.86;100.00
63111;BME280;49201;53.426;10.300;2023-03-15T09:06:30;101495.38;;;7.05;100.00
63111;BME280;49201;53.426;10.300;2023-03-15T09:08:56;101482.84;;;7.49;100.00
63111;BME280;49201;53.426;10.300;2023-03-15T09:11:21;101483.03;;;7.14;100.00
63111;BME280;49201;53.426;10.300;2023-03-15T09:13:47;101465.31;;;7.56;100.00
63111;BME280;49201;53.426;10.300;2023-03-15T09:16:13;101417.38;;;7.89;100.00
63111;BME280;49201;53.426;10.300;2023-03-15T09:18:39;101406.97;;;7.42;100.00
63111;BME280;49201;53.426;10.300;2023-03-15T09:21:05;101367.09;;;8.07;100.00
63111;BME280;49201;53.426;10.300;2023-03-15T09:23:31;101253.50;;;9.99;100.00
63111;BME280;49201;53.426;10.300;2023-03-15T09:25:57;100748.50;;;13.81;97.17
63111;BME280;49201;53.426;10.300;2023-03-15T09:28:22;100379.78;;;16.34;63.43
63111;BME280;49201;53.426;10.300;2023-03-15T09:30:50;100201.50;;;17.82;51.75
63111;BME280;49201;53.426;10.300;2023-03-15T09:33:16;100031.38;;;18.18;45.79
63111;BME280;49201;53.426;10.300;2023-03-15T09:35:41;100109.81;;;17.04;47.03
63111;BME280;49201;53.426;10.300;2023-03-15T09:38:07;99977.00;;;18.82;42.88
63111;BME280;49201;53.426;10.300;2023-03-15T09:40:37;99963.41;;;19.33;42.23
63111;BME280;49201;53.426;10.300;2023-03-15T09:43:34;100255.09;;;19.34;42.91
63111;BME280;49201;53.426;10.300;2023-03-15T09:46:26;100507.09;;;16.54;50.49
63111;BME280;49201;53.426;10.300;2023-03-15T09:51:43;100976.47;;;10.37;100.00
63111;BME280;49201;53.426;10.300;2023-03-15T09:54:17;101142.09;;;8.92;100.00
63111;BME280;49201;53.426;10.300;2023-03-15T09:56:52;101281.94;;;8.25;100.00
63111;BME280;49201;53.426;10.300;2023-03-15T09:59:23;101350.97;;;8.52;100.00
63111;BME280;49201;53.426;10.300;2023-03-15T10:01:54;101170.50;;;12.51;100.00
63111;BME280;49201;53.426;10.300;2023-03-15T10:04:31;100734.44;;;16.78;58.44
63111;BME280;49201;53.426;10.300;2023-03-15T10:07:05;100437.44;;;19.81;43.42
63111;BME280;49201;53.426;10.300;2023-03-15T10:09:34;100791.72;;;20.68;40.28
63111;BME280;49201;53.426;10.300;2023-03-15T10:12:15;101125.41;;;21.37;38.92
63111;BME280;49201;53.426;10.300;2023-03-15T10:15:21;101174.03;;;22.58;36.02
63111;BME280;49201;53.426;10.300;2023-03-15T10:20:23;101294.31;;;23.57;33.32
63111;BME280;49201;53.426;10.300;2023-03-15T10:23:04;101305.28;;;23.70;32.54
63111;BME280;49201;53.426;10.300;2023-03-15T10:25:35;101313.59;;;23.85;32.43
63111;BME280;49201;53.426;10.300;2023-03-15T10:30:47;101325.69;;;25.83;30.37
63111;BME280;49201;53.426;10.300;2023-03-15T10:35:40;101356.75;;;22.18;33.03
63111;BME280;49201;53.426;10.300;2023-03-15T10:38:19;101323.53;;;24.93;30.62
63111;BME280;49201;53.426;10.300;2023-03-15T10:43:22;101447.50;;;15.56;42.43
63111;BME280;49201;53.426;10.300;2023-03-15T10:48:37;101545.16;;;11.37;74.95
63111;BME280;49201;53.426;10.300;2023-03-15T10:51:17;101572.88;;;10.91;90.07
63111;BME280;49201;53.426;10.300;2023-03-15T10:56:36;101620.91;;;9.70;100.00
63111;BME280;49201;53.426;10.300;2023-03-15T10:59:14;101644.84;;;9.27;100.00
63111;BME280;49201;53.426;10.300;2023-03-15T11:01:40;101469.44;;;16.02;62.31
63111;BME280;49201;53.426;10.300;2023-03-15T11:09:24;101325.34;;;25.17;30.53
63111;BME280;49201;53.426;10.300;2023-03-15T11:12:08;101384.72;;;21.09;34.20
63111;BME280;49201;53.426;10.300;2023-03-15T11:14:46;101457.72;;;14.70;42.71
63111;BME280;49201;53.426;10.300;2023-03-15T11:17:19;101487.59;;;16.11;45.80
63111;BME280;49201;53.426;10.300;2023-03-15T11:19:53;101405.44;;;19.61;38.18
63111;BME280;49201;53.426;10.300;2023-03-15T11:22:20;101361.94;;;21.73;33.73
63111;BME280;49201;53.426;10.300;2023-03-15T11:24:46;101379.28;;;19.83;34.73
63111;BME280;49201;53.426;10.300;2023-03-15T11:27:16;101442.50;;;18.09;39.24
63111;BME280;49201;53.426;10.300;2023-03-15T11:29:47;101404.34;;;18.61;35.91
63111;BME280;49201;53.426;10.300;2023-03-15T11:32:22;101501.88;;;12.14;49.43
63111;BME280;49201;53.426;10.300;2023-03-15T11:35:11;101477.25;;;16.14;44.35
63111;BME280;49201;53.426;10.300;2023-03-15T11:37:47;101424.28;;;16.98;39.10
63111;BME280;49201;53.426;10.300;2023-03-15T11:43:00;101368.69;;;24.14;29.68
63111;BME280;49201;53.426;10.300;2023-03-15T11:45:35;101400.13;;;23.79;27.68
63111;BME280;49201;53.426;10.300;2023-03-15T11:50:56;101505.34;;;14.97;39.14
63111;BME280;49201;53.426;10.300;2023-03-15T11:53:24;101519.16;;;12.97;43.71
63111;BME280;49201;53.426;10.300;2023-03-15T11:55:52;101541.78;;;13.13;47.28
63111;BME280;49201;53.426;10.300;2023-03-15T11:58:30;101494.47;;;14.55;43.69
63111;BME280;49201;53.426;10.300;2023-03-15T12:01:05;101482.88;;;15.66;40.94
63111;BME280;49201;53.426;10.300;2023-03-15T12:08:53;101396.47;;;22.75;30.13
63111;BME280;49201;53.426;10.300;2023-03-15T12:16:27;101553.19;;;12.87;48.15
63111;BME280;49201;53.426;10.300;2023-03-15T12:18:56;101621.63;;;10.15;78.18
63111;BME280;49201;53.426;10.300;2023-03-15T12:21:31;101671.13;;;8.80;100.00
63111;BME280;49201;53.426;10.300;2023-03-15T12:24:01;101693.84;;;8.14;100.00
63111;BME280;49201;53.426;10.300;2023-03-15T12:26:39;101727.69;;;7.72;100.00
63111;BME280;49201;53.426;10.300;2023-03-15T12:34:50;101791.28;;;6.99;100.00
63111;BME280;49201;53.426;10.300;2023-03-15T12:37:27;101804.00;;;6.82;100.00
63111;BME280;49201;53.426;10.300;2023-03-15T12:39:59;101819.69;;;6.41;100.00
63111;BME280;49201;53.426;10.300;2023-03-15T12:55:44;101766.88;;;7.57;100.00
63111;BME280;49201;53.426;10.300;2023-03-15T12:58:15;101847.91;;;6.78;100.00
63111;BME280;49201;53.426;10.300;2023-03-15T13:00:41;101877.09;;;6.68;100.00
63111;BME280;49201;53.426;10.300;2023-03-15T13:03:10;101848.66;;;6.43;100.00
63111;BME280;49201;53.426;10.300;2023-03-15T13:06:40;101838.72;;;6.32;100.00
63111;BME280;49201;53.426;10.300;2023-03-15T13:14:32;101727.84;;;8.32;100.00
63111;BME280;49201;53.426;10.300;2023-03-15T13:19:53;101609.09;;;8.83;100.00
63111;BME280;49201;53.426;10.300;2023-03-15T13:22:36;101608.41;;;8.87;100.00
63111;BME280;49201;53.426;10.300;2023-03-15T13:25:18;101573.38;;;9.28;100.00
63111;BME280;49201;53.426;10.300;2023-03-15T13:27:53;101582.16;;;9.60;100.00
63111;BME280;49201;53.426;10.300;2023-03-15T13:30:35;101557.13;;;9.75;100.00
63111;BME280;49201;53.426;10.300;2023-03-15T13:35:41;101528.56;;;9.88;100.00
63111;BME280;49201;53.426;10.300;2023-03-15T13:40:50;101488.41;;;10.37;94.93
63111;BME280;49201;53.426;10.300;2023-03-15T13:43:16;101501.50;;;10.19;98.36
63111;BME280;49201;53.426;10.300;2023-03-15T13:45:42;101478.22;;;10.38;94.79
63111;BME280;49201;53.426;10.300;2023-03-15T13:48:08;101442.50;;;10.43;88.64
63111;BME280;49201;53.426;10.300;2023-03-15T13:50:34;101432.31;;;10.74;87.94
63111;BME280;49201;53.426;10.300;2023-03-15T13:53:00;101423.84;;;11.07;84.64
63111;BME280;49201;53.426;10.300;2023-03-15T13:55:31;101420.81;;;11.22;84.13
63111;BME280;49201;53.426;10.300;2023-03-15T13:58:05;101401.09;;;11.52;81.29
63111;BME280;49201;53.426;10.300;2023-03-15T14:00:31;101368.00;;;11.28;73.18
63111;BME280;49201;53.426;10.300;2023-03-15T14:03:04;101378.34;;;10.99;75.18
63111;BME280;49201;53.426;10.300;2023-03-15T14:05:33;101374.69;;;11.57;75.01
63111;BME280;49201;53.426;10.300;2023-03-15T14:08:16;101377.25;;;11.22;74.45
63111;BME280;49201;53.426;10.300;2023-03-15T14:10:57;101370.69;;;11.67;74.25